CheckWX is a tool to help pilots better visualize weather data.  It is not intended as a substitute for an official pre-flight weather briefing.

18:33:07 UTC

FABL METAR
Bram Fischer International Airport
Bloemfontain, South Africa
Current

33 mins ago

FABL 221800Z 35005KT 9999 FEW045TCU 24/13 Q1017 NOSIG
Observed
Feb-22 @ 18:00 UTC
Wind
  • 350° at 5 KTS
Visibility
10,000+ meters
Flight Rules
VFR
Cloud Levels
  • Few at 4,500' AGL
Temperature
24°C / 75°F
Dewpoint
13°C / 55°F
Humidity
50%
Altimeter
30.03" Hg
Pressure
1016.92 hPa
Previous

2 hours ago

FABL 221700Z 35009KT 9999 FEW045TCU 26/12 Q1016 NOSIG
Observed
Feb-22 @ 17:00 UTC
Wind
  • 350° at 9 KTS
Visibility
10,000+ meters
Flight Rules
VFR
Cloud Levels
  • Few at 4,500' AGL
Temperature
26°C / 79°F
Dewpoint
12°C / 54°F
Humidity
42%
Altimeter
30" Hg
Pressure
1015.92 hPa
Previous

3 hours ago

FABL 221600Z 31011KT 9999 FEW045TCU 30/11 Q1016 NOSIG
Observed
Feb-22 @ 16:00 UTC
Wind
  • 310° at 11 KTS
Visibility
10,000+ meters
Flight Rules
VFR
Cloud Levels
  • Few at 4,500' AGL
Temperature
30°C / 86°F
Dewpoint
11°C / 52°F
Humidity
31%
Altimeter
30" Hg
Pressure
1015.92 hPa